Svinoy — V7RM5 — position and weather

sailwx.info

Track history (hours):
 
Tides and Currents Weather Stations Pressure Air Temp Water Temp Dewpoint Dewpoint Depression Visibility Wind Speed Wind Dir Waves Ship Positions

Svinoy

Last reported at 2015-Mar-29 02:32 UTC. Time now 2015-Mar-29 03:11 UTC.
Position S 12°47' W 038°30'.

Length 190 m; draft 8.4 m.

Type: Cargo ship. MMSI: 538003541.

Date/timePositionNaut miles runAvg speedWind from/ knotsBaromVisibWave heightAir tempDewpointWater temp
2015-Mar-29 02:32S 12°47' W 038°30'0 0.0
2015-Mar-29 01:32S 12°47' W 038°30'0 0.0
2015-Mar-29 00:32S 12°47' W 038°30'0 0.0
2015-Mar-28 23:32S 12°47' W 038°30'0 0.0
2015-Mar-28 22:32S 12°47' W 038°30'0 0.0
2015-Mar-28 21:32S 12°47' W 038°30'0 0.0
2015-Mar-28 20:32S 12°47' W 038°30'0 0.0
2015-Mar-28 19:33S 12°47' W 038°30'8 7.8
2015-Mar-28 18:33S 12°54' W 038°33'8 8.3
2015-Mar-28 17:33S 13°02' W 038°34'7 6.9
2015-Mar-28 16:33S 13°09' W 038°36'0 0.4
2015-Mar-28 15:33S 13°09' W 038°36'0 0.1
2015-Mar-28 14:25S 13°09' W 038°36'4 5.0
2015-Mar-28 13:33S 13°05' W 038°35'10 9.7
2015-Mar-28 12:32S 13°15' W 038°34'  
Track history (hours):
 
Tides and Currents Weather Stations Pressure Air Temp Water Temp Dewpoint Dewpoint Depression Visibility Wind Speed Wind Dir Waves Ship Positions

Svinoy

Last reported at 2015-Mar-29 02:32 UTC. Time now 2015-Mar-29 03:11 UTC.
Position S 12°47' W 038°30'.

Length 190 m; draft 8.4 m.

Type: Cargo ship. MMSI: 538003541.

Date/timePositionNaut miles runAvg speedWind from/ knotsBaromVisibWave heightAir tempDewpointWater temp
2015-Mar-29 02:32S 12°47' W 038°30'0 0.0
2015-Mar-29 01:32S 12°47' W 038°30'0 0.0
2015-Mar-29 00:32S 12°47' W 038°30'0 0.0
2015-Mar-28 23:32S 12°47' W 038°30'0 0.0
2015-Mar-28 22:32S 12°47' W 038°30'0 0.0
2015-Mar-28 21:32S 12°47' W 038°30'0 0.0
2015-Mar-28 20:32S 12°47' W 038°30'0 0.0
2015-Mar-28 19:33S 12°47' W 038°30'8 7.8
2015-Mar-28 18:33S 12°54' W 038°33'8 8.3
2015-Mar-28 17:33S 13°02' W 038°34'7 6.9
2015-Mar-28 16:33S 13°09' W 038°36'0 0.4
2015-Mar-28 15:33S 13°09' W 038°36'0 0.1
2015-Mar-28 14:25S 13°09' W 038°36'4 5.0
2015-Mar-28 13:33S 13°05' W 038°35'10 9.7
2015-Mar-28 12:32S 13°15' W 038°34'  

Dump ship's entire track history